Time;durP1;ratioP1;P1;durP2;ratioP2;P2;SDS_P1;SDS_P2;PMS_P1;PMS_P2;Temp;Humidity;BMP_temperature;BMP_pressure;BME280_temperature;BME280_humidity;BME280_pressure;Samples;Min_cycle;Max_cycle;Signal;HPM_P1;HPM_P2
2023/04/16 00:01:13;0.00;0.00;0.62;0.00;0.00;0.62;2.53;2.33;;;24.60;23.60;;;;;;2261349;61;20400;-61
2023/04/16 00:03:58;0.00;0.00;0.62;0.00;0.00;0.62;3.20;2.37;;;24.60;23.60;;;;;;2260381;61;20376;-61
2023/04/16 00:06:42;0.00;0.00;0.62;0.00;0.00;0.62;2.70;2.50;;;24.60;23.60;;;;;;2261031;61;20705;-61
2023/04/16 00:09:28;0.00;0.00;0.62;0.00;0.00;0.62;2.90;2.53;;;24.60;23.60;;;;;;2259761;61;20412;-62
2023/04/16 00:12:14;0.00;0.00;0.62;0.00;0.00;0.62;3.13;2.93;;;24.60;23.60;;;;;;2260503;61;20825;-61
2023/04/16 00:14:59;0.00;0.00;0.62;0.00;0.00;0.62;2.57;2.37;;;24.60;23.60;;;;;;2260443;61;20368;-61
2023/04/16 00:17:44;0.00;0.00;0.62;0.00;0.00;0.62;2.87;2.57;;;24.60;23.60;;;;;;2260257;61;20910;-60
2023/04/16 00:20:28;0.00;0.00;0.62;0.00;0.00;0.62;3.23;2.93;;;24.60;23.60;;;;;;2260090;61;20856;-59
2023/04/16 00:23:13;0.00;0.00;0.62;0.00;0.00;0.62;2.60;2.20;;;24.60;23.60;;;;;;2260587;61;20443;-63
2023/04/16 00:25:59;0.00;0.00;0.62;0.00;0.00;0.62;2.60;2.40;;;24.60;23.60;;;;;;2260873;61;20487;-61
2023/04/16 00:28:44;0.00;0.00;0.62;0.00;0.00;0.62;3.03;2.73;;;24.60;23.60;;;;;;2260669;61;20941;-61
2023/04/16 00:31:30;0.00;0.00;0.62;0.00;0.00;0.62;2.77;2.50;;;24.60;23.60;;;;;;2260356;61;20929;-61
2023/04/16 00:34:15;0.00;0.00;0.62;0.00;0.00;0.62;2.50;2.30;;;24.60;23.60;;;;;;2262400;61;20897;-65
2023/04/16 00:37:00;0.00;0.00;0.62;0.00;0.00;0.62;3.40;2.80;;;24.60;24.20;;;;;;2260564;61;20357;-63
2023/04/16 00:39:45;0.00;0.00;0.62;0.00;0.00;0.62;3.00;2.70;;;24.60;23.60;;;;;;2259828;61;20845;-65
2023/04/16 00:42:31;0.00;0.00;0.62;0.00;0.00;0.62;3.13;2.83;;;24.60;23.60;;;;;;2260531;61;20772;-63
2023/04/16 00:45:15;0.00;0.00;0.62;0.00;0.00;0.62;2.90;2.67;;;24.60;23.60;;;;;;2260109;61;20461;-65
2023/04/16 00:48:01;0.00;0.00;0.62;0.00;0.00;0.62;3.37;2.67;;;24.60;23.60;;;;;;2260293;61;20376;-61
2023/04/16 00:50:45;0.00;0.00;0.62;0.00;0.00;0.62;2.80;2.50;;;24.60;23.60;;;;;;2260229;61;20469;-62
2023/04/16 00:53:30;0.00;0.00;0.62;0.00;0.00;0.62;2.30;2.07;;;24.60;23.70;;;;;;2262625;61;20357;-61
2023/04/16 00:56:15;0.00;0.00;0.62;0.00;0.00;0.62;2.83;2.57;;;24.60;23.60;;;;;;2257301;61;20960;-60
2023/04/16 00:59:02;0.00;0.00;0.62;0.00;0.00;0.62;2.83;2.50;;;24.60;23.60;;;;;;2259234;61;20509;-60
2023/04/16 01:01:46;0.00;0.00;0.62;0.00;0.00;0.62;2.40;2.20;;;24.60;23.60;;;;;;2258222;61;20420;-61
2023/04/16 01:04:32;0.00;0.00;0.62;0.00;0.00;0.62;2.33;2.10;;;24.60;23.60;;;;;;2256437;61;20365;-60
2023/04/16 01:07:17;0.00;0.00;0.62;0.00;0.00;0.62;3.00;2.70;;;24.50;23.60;;;;;;2261273;61;20789;-61
2023/04/16 01:10:02;0.00;0.00;0.62;0.00;0.00;0.62;2.77;2.50;;;24.60;23.60;;;;;;2256079;61;20853;-61
2023/04/16 01:12:47;0.00;0.00;0.62;0.00;0.00;0.62;2.90;2.60;;;24.50;23.60;;;;;;2255987;61;20361;-64
2023/04/16 01:15:33;0.00;0.00;0.62;0.00;0.00;0.62;3.07;2.77;;;24.50;23.60;;;;;;2256148;61;20488;-60
2023/04/16 01:18:20;0.00;0.00;0.62;0.00;0.00;0.62;2.87;2.57;;;24.60;23.60;;;;;;2255985;61;20428;-62
2023/04/16 01:21:06;0.00;0.00;0.62;0.00;0.00;0.62;2.90;2.50;;;24.50;23.60;;;;;;2256484;61;20365;-59
2023/04/16 01:23:51;0.00;0.00;0.62;0.00;0.00;0.62;2.60;2.40;;;24.50;23.60;;;;;;2252921;61;20417;-62
2023/04/16 01:26:36;0.00;0.00;0.62;0.00;0.00;0.62;2.90;2.60;;;24.60;23.60;;;;;;2256242;61;20638;-60
2023/04/16 01:29:20;0.00;0.00;0.62;0.00;0.00;0.62;2.80;2.40;;;24.50;23.60;;;;;;2252997;61;20509;-61
2023/04/16 01:32:07;0.00;0.00;0.62;0.00;0.00;0.62;3.13;2.20;;;24.50;23.60;;;;;;2253083;61;20381;-62
2023/04/16 01:34:54;0.00;0.00;0.62;0.00;0.00;0.62;2.93;2.63;;;24.50;23.60;;;;;;2252851;61;20812;-61
2023/04/16 01:37:40;0.00;0.00;0.62;0.00;0.00;0.62;2.33;2.13;;;24.50;23.60;;;;;;2253164;61;20405;-61
2023/04/16 01:40:25;0.00;0.00;0.62;0.00;0.00;0.62;2.73;2.50;;;24.50;23.60;;;;;;2252713;61;20365;-63
2023/04/16 01:43:10;0.00;0.00;0.62;0.00;0.00;0.62;2.87;2.63;;;24.50;23.60;;;;;;2256486;61;20358;-64
2023/04/16 01:46:12;0.00;0.00;0.62;0.00;0.00;0.62;2.30;2.10;;;24.50;23.60;;;;;;2256071;61;20949;-61
2023/04/16 01:48:57;0.00;0.00;0.62;0.00;0.00;0.62;3.07;2.60;;;24.50;23.60;;;;;;2256109;61;20393;-63
2023/04/16 01:51:42;0.00;0.00;0.62;0.00;0.00;0.62;2.73;2.50;;;24.50;23.60;;;;;;2256450;61;20361;-63
2023/04/16 01:54:28;0.00;0.00;0.62;0.00;0.00;0.62;2.67;2.33;;;24.50;23.60;;;;;;2252686;61;20366;-60
2023/04/16 01:57:12;0.00;0.00;0.62;0.00;0.00;0.62;2.70;2.50;;;24.50;23.60;;;;;;2256394;61;20432;-60
2023/04/16 01:59:57;0.00;0.00;0.62;0.00;0.00;0.62;2.63;2.43;;;24.50;23.60;;;;;;2252395;61;20358;-60
2023/04/16 02:02:42;0.00;0.00;0.62;0.00;0.00;0.62;3.00;2.70;;;24.50;23.60;;;;;;2253117;61;20461;-63
2023/04/16 02:05:26;0.00;0.00;0.62;0.00;0.00;0.62;2.67;2.23;;;24.50;23.60;;;;;;2256426;61;20361;-63
2023/04/16 02:08:11;0.00;0.00;0.62;0.00;0.00;0.62;2.90;2.63;;;24.50;23.60;;;;;;2252682;61;20389;-61
2023/04/16 02:10:57;0.00;0.00;0.62;0.00;0.00;0.62;3.00;2.30;;;24.50;23.60;;;;;;2260115;61;20361;-60
2023/04/16 02:13:43;0.00;0.00;0.62;0.00;0.00;0.62;2.40;2.20;;;24.50;23.60;;;;;;2257142;61;20372;-62
2023/04/16 02:16:28;0.00;0.00;0.62;0.00;0.00;0.62;2.90;2.60;;;24.50;23.60;;;;;;2256910;61;20877;-60
2023/04/16 02:19:45;0.00;0.00;0.62;0.00;0.00;0.62;2.70;2.50;;;24.50;23.60;;;;;;2258464;61;20365;-63
2023/04/16 02:22:30;0.00;0.00;0.62;0.00;0.00;0.62;2.70;2.50;;;24.50;23.60;;;;;;2256684;61;20357;-63
2023/04/16 02:25:15;0.00;0.00;0.62;0.00;0.00;0.62;2.67;2.47;;;24.50;23.60;;;;;;2257211;61;20415;-61
2023/04/16 02:28:01;0.00;0.00;0.62;0.00;0.00;0.62;2.67;2.47;;;24.50;23.60;;;;;;2257119;61;20377;-61
2023/04/16 02:30:52;0.00;0.00;0.62;0.00;0.00;0.62;3.07;2.80;;;24.50;23.60;;;;;;2259222;61;20392;-60
2023/04/16 02:33:38;0.00;0.00;0.62;0.00;0.00;0.62;2.83;2.53;;;24.40;23.50;;;;;;2256993;61;20407;-61
2023/04/16 02:36:24;0.00;0.00;0.62;0.00;0.00;0.62;2.60;2.30;;;24.40;24.00;;;;;;2256820;61;20415;-61
2023/04/16 02:39:09;0.00;0.00;0.62;0.00;0.00;0.62;3.03;2.73;;;24.40;23.50;;;;;;2256675;61;20904;-65
2023/04/16 02:41:55;0.00;0.00;0.62;0.00;0.00;0.62;2.60;2.40;;;24.40;23.50;;;;;;2257217;61;20443;-63
2023/04/16 02:44:41;0.00;0.00;0.62;0.00;0.00;0.62;2.83;2.63;;;24.40;23.50;;;;;;2256488;61;20361;-65
2023/04/16 02:47:28;0.00;0.00;0.62;0.00;0.00;0.62;3.10;2.33;;;24.40;23.50;;;;;;2279078;39;20450;31
2023/04/16 02:50:13;0.00;0.00;0.62;0.00;0.00;0.62;2.57;2.37;;;24.50;23.60;;;;;;2257224;61;20389;-62
2023/04/16 02:52:58;0.00;0.00;0.62;0.00;0.00;0.62;3.20;2.90;;;24.40;23.50;;;;;;2256004;61;20493;-61
2023/04/16 02:55:51;0.00;0.00;0.62;0.00;0.00;0.62;2.70;2.50;;;24.50;23.60;;;;;;2255754;61;20358;-64
2023/04/16 02:58:36;0.00;0.00;0.62;0.00;0.00;0.62;2.90;2.60;;;24.40;23.50;;;;;;2252851;61;20377;-62
2023/04/16 03:01:21;0.00;0.00;0.62;0.00;0.00;0.62;3.10;2.80;;;24.40;23.50;;;;;;2255666;61;20754;-65
2023/04/16 03:04:06;0.00;0.00;0.62;0.00;0.00;0.62;3.03;2.53;;;24.50;23.60;;;;;;2255440;61;20420;-64
2023/04/16 03:06:51;0.00;0.00;0.62;0.00;0.00;0.62;2.90;2.70;;;24.40;23.50;;;;;;2255860;61;20437;-62
2023/04/16 03:09:35;0.00;0.00;0.62;0.00;0.00;0.62;2.97;2.50;;;24.40;23.50;;;;;;2255719;61;20408;-63
2023/04/16 03:12:20;0.00;0.00;0.62;0.00;0.00;0.62;3.07;2.50;;;24.40;23.50;;;;;;2255753;61;20432;-63
2023/04/16 03:15:06;0.00;0.00;0.62;0.00;0.00;0.62;2.73;2.53;;;24.40;23.50;;;;;;2255429;61;20362;-63
2023/04/16 03:17:52;0.00;0.00;0.62;0.00;0.00;0.62;2.87;2.57;;;24.40;23.50;;;;;;2255824;61;20520;-63
2023/04/16 03:20:37;0.00;0.00;0.62;0.00;0.00;0.62;3.03;2.77;;;24.40;23.50;;;;;;2255453;61;20366;-65
2023/04/16 03:23:22;0.00;0.00;0.62;0.00;0.00;0.62;2.33;2.13;;;24.40;23.50;;;;;;2255428;61;20550;-65
2023/04/16 03:26:08;0.00;0.00;0.62;0.00;0.00;0.62;3.07;2.77;;;24.40;23.50;;;;;;2255319;61;20362;-64
2023/04/16 03:28:52;0.00;0.00;0.62;0.00;0.00;0.62;2.87;2.53;;;24.40;23.50;;;;;;2255523;61;20421;-65
2023/04/16 03:31:38;0.00;0.00;0.62;0.00;0.00;0.62;6.10;2.80;;;24.40;23.50;;;;;;2255955;61;20358;-65
2023/04/16 03:34:24;0.00;0.00;0.62;0.00;0.00;0.62;2.80;2.37;;;24.40;23.50;;;;;;2255519;61;20764;-64
2023/04/16 03:37:10;0.00;0.00;0.62;0.00;0.00;0.62;2.47;2.23;;;24.40;23.50;;;;;;2255603;61;20936;-61
2023/04/16 03:39:55;0.00;0.00;0.62;0.00;0.00;0.62;2.27;2.07;;;24.40;23.50;;;;;;2255804;61;20438;-60
2023/04/16 03:42:40;0.00;0.00;0.62;0.00;0.00;0.62;3.47;2.73;;;24.40;23.60;;;;;;2256488;61;20452;-65
2023/04/16 03:45:25;0.00;0.00;0.62;0.00;0.00;0.62;3.57;3.20;;;24.40;23.50;;;;;;2256194;61;20380;-60
2023/04/16 03:48:10;0.00;0.00;0.62;0.00;0.00;0.62;3.13;2.83;;;24.40;23.50;;;;;;2256152;61;20804;-60
2023/04/16 03:50:56;0.00;0.00;0.62;0.00;0.00;0.62;2.77;2.50;;;24.40;23.50;;;;;;2256165;61;20483;-62
2023/04/16 03:53:41;0.00;0.00;0.62;0.00;0.00;0.62;2.60;2.30;;;24.40;23.50;;;;;;2256576;61;20372;-61
2023/04/16 03:56:26;0.00;0.00;0.62;0.00;0.00;0.62;2.60;2.37;;;24.30;23.40;;;;;;2256336;61;20362;-61
2023/04/16 03:59:11;0.00;0.00;0.62;0.00;0.00;0.62;2.87;2.47;;;24.40;23.50;;;;;;2255560;61;20378;-61
2023/04/16 04:01:57;0.00;0.00;0.62;0.00;0.00;0.62;2.93;2.63;;;24.40;23.50;;;;;;2255994;61;20365;-63
2023/04/16 04:04:42;0.00;0.00;0.62;0.00;0.00;0.62;2.57;2.37;;;24.40;23.50;;;;;;2257035;61;20949;-61
2023/04/16 04:07:29;0.00;0.00;0.62;0.00;0.00;0.62;2.60;2.40;;;24.30;23.50;;;;;;2256029;61;20358;-60
2023/04/16 04:10:15;0.00;0.00;0.62;0.00;0.00;0.62;2.63;2.40;;;24.30;23.50;;;;;;2255660;61;20834;-61
2023/04/16 04:13:02;0.00;0.00;0.62;0.00;0.00;0.62;3.53;3.23;;;24.30;23.50;;;;;;2256018;61;20358;-59
2023/04/16 04:15:47;0.00;0.00;0.62;0.00;0.00;0.62;2.67;2.40;;;24.30;23.50;;;;;;2256524;61;20501;-62
2023/04/16 04:18:32;0.00;0.00;0.62;0.00;0.00;0.62;2.40;2.20;;;24.40;23.50;;;;;;2256193;61;20377;-62
2023/04/16 04:21:17;0.00;0.00;0.62;0.00;0.00;0.62;3.00;2.70;;;24.30;23.50;;;;;;2255736;61;20357;-65
2023/04/16 04:24:03;0.00;0.00;0.62;0.00;0.00;0.62;2.87;2.57;;;24.30;24.00;;;;;;2256234;61;20409;-65
2023/04/16 04:26:50;0.00;0.00;0.62;0.00;0.00;0.62;2.73;2.50;;;24.30;23.50;;;;;;2256494;61;20765;-63
2023/04/16 04:29:35;0.00;0.00;0.62;0.00;0.00;0.62;2.60;2.40;;;24.30;23.50;;;;;;2255618;61;20466;-60
2023/04/16 04:32:20;0.00;0.00;0.62;0.00;0.00;0.62;2.23;1.93;;;24.30;23.50;;;;;;2256252;61;20365;-60
2023/04/16 04:35:07;0.00;0.00;0.62;0.00;0.00;0.62;2.67;2.40;;;24.30;23.50;;;;;;2255792;61;20820;-61
2023/04/16 04:37:52;0.00;0.00;0.62;0.00;0.00;0.62;2.80;2.50;;;24.30;23.50;;;;;;2256368;61;20382;-61
2023/04/16 04:40:40;0.00;0.00;0.62;0.00;0.00;0.62;3.10;2.37;;;24.30;23.50;;;;;;2255984;61;20362;-61
2023/04/16 04:43:27;0.00;0.00;0.62;0.00;0.00;0.62;2.90;2.60;;;24.30;23.50;;;;;;2256292;61;20513;-60
2023/04/16 04:46:12;0.00;0.00;0.62;0.00;0.00;0.62;3.03;2.60;;;24.30;23.50;;;;;;2255962;61;20358;-62
2023/04/16 04:48:58;0.00;0.00;0.62;0.00;0.00;0.62;3.20;2.90;;;24.30;23.50;;;;;;2255844;61;20413;-61
2023/04/16 04:51:43;0.00;0.00;0.62;0.00;0.00;0.62;3.20;2.90;;;24.30;23.50;;;;;;2255789;61;20414;-60
2023/04/16 04:54:28;0.00;0.00;0.62;0.00;0.00;0.62;2.70;2.40;;;24.30;23.50;;;;;;2256454;61;20366;-60
2023/04/16 04:57:14;0.00;0.00;0.62;0.00;0.00;0.62;3.07;2.77;;;24.30;23.50;;;;;;2255808;61;20366;-62
2023/04/16 04:59:59;0.00;0.00;0.62;0.00;0.00;0.62;2.47;2.27;;;24.30;23.50;;;;;;2255818;61;20498;-62
2023/04/16 05:02:48;0.00;0.00;0.62;0.00;0.00;0.62;3.00;2.70;;;24.30;23.50;;;;;;2256360;61;20409;-61
2023/04/16 05:05:32;0.00;0.00;0.62;0.00;0.00;0.62;2.30;2.10;;;24.30;23.50;;;;;;2256416;61;20389;-63
2023/04/16 05:08:18;0.00;0.00;0.62;0.00;0.00;0.62;2.27;2.00;;;24.30;23.50;;;;;;2256400;61;20946;-61
2023/04/16 05:11:02;0.00;0.00;0.62;0.00;0.00;0.62;3.10;2.80;;;24.30;23.50;;;;;;2255968;61;20385;-61
2023/04/16 05:13:48;0.00;0.00;0.62;0.00;0.00;0.62;2.60;2.40;;;24.30;23.50;;;;;;2256159;61;20362;-59
2023/04/16 05:16:35;0.00;0.00;0.62;0.00;0.00;0.62;3.07;2.40;;;24.30;23.50;;;;;;2256415;61;20366;-61
2023/04/16 05:19:20;0.00;0.00;0.62;0.00;0.00;0.62;2.90;2.60;;;24.30;23.50;;;;;;2255851;61;20378;-63
2023/04/16 05:22:05;0.00;0.00;0.62;0.00;0.00;0.62;2.70;2.50;;;24.30;23.50;;;;;;2256647;61;20385;-61
2023/04/16 05:24:50;0.00;0.00;0.62;0.00;0.00;0.62;2.73;2.43;;;24.30;23.50;;;;;;2256650;61;20949;-60
2023/04/16 05:27:35;0.00;0.00;0.62;0.00;0.00;0.62;2.67;2.43;;;24.30;23.50;;;;;;2256023;61;20982;-61
2023/04/16 05:30:22;0.00;0.00;0.62;0.00;0.00;0.62;2.77;2.03;;;24.30;23.50;;;;;;2252656;61;20378;-63
2023/04/16 05:33:06;0.00;0.00;0.62;0.00;0.00;0.62;2.40;2.20;;;24.30;23.50;;;;;;2256475;61;20381;-61
2023/04/16 05:35:51;0.00;0.00;0.62;0.00;0.00;0.62;2.60;2.20;;;24.30;23.50;;;;;;2256267;61;20459;-61
2023/04/16 05:38:35;0.00;0.00;0.62;0.00;0.00;0.62;2.33;2.13;;;24.30;23.50;;;;;;2253219;61;20382;-64
2023/04/16 05:41:20;0.00;0.00;0.62;0.00;0.00;0.62;2.90;2.30;;;24.30;23.50;;;;;;2256137;61;20365;-62
2023/04/16 05:44:05;0.00;0.00;0.62;0.00;0.00;0.62;2.80;2.60;;;24.30;23.50;;;;;;2256412;61;20408;-63
2023/04/16 05:46:51;0.00;0.00;0.62;0.00;0.00;0.62;2.60;2.23;;;24.30;23.50;;;;;;2256162;61;20405;-61
2023/04/16 05:49:36;0.00;0.00;0.62;0.00;0.00;0.62;2.60;2.40;;;24.30;23.50;;;;;;2255789;61;20459;-60
2023/04/16 05:52:20;0.00;0.00;0.62;0.00;0.00;0.62;2.93;2.47;;;24.30;23.50;;;;;;2256155;61;20784;-62
2023/04/16 05:55:06;0.00;0.00;0.62;0.00;0.00;0.62;2.33;2.13;;;24.30;23.50;;;;;;2256281;61;20787;-63
2023/04/16 05:57:50;0.00;0.00;0.62;0.00;0.00;0.62;2.80;2.50;;;24.30;23.50;;;;;;2255911;61;20398;-62
2023/04/16 06:00:35;0.00;0.00;0.62;0.00;0.00;0.62;2.97;2.70;;;24.30;23.50;;;;;;2255590;61;20413;-63
2023/04/16 06:03:22;0.00;0.00;0.62;0.00;0.00;0.62;2.50;2.30;;;24.30;23.50;;;;;;2256398;61;20374;-64
2023/04/16 06:06:08;0.00;0.00;0.62;0.00;0.00;0.62;2.50;2.30;;;24.20;23.40;;;;;;2256498;61;20428;-61
2023/04/16 06:08:52;0.00;0.00;0.62;0.00;0.00;0.62;2.90;2.57;;;24.30;23.50;;;;;;2255954;61;20408;-64
2023/04/16 06:11:37;0.00;0.00;0.62;0.00;0.00;0.62;2.47;2.27;;;24.30;23.50;;;;;;2256347;61;20461;-60
2023/04/16 06:14:21;0.00;0.00;0.62;0.00;0.00;0.62;2.40;2.13;;;24.30;23.50;;;;;;2256025;61;20984;-59
2023/04/16 06:17:06;0.00;0.00;0.62;0.00;0.00;0.62;2.60;2.20;;;24.30;23.50;;;;;;2256569;61;20467;-63
2023/04/16 06:19:52;0.00;0.00;0.62;0.00;0.00;0.62;2.53;2.33;;;24.30;23.50;;;;;;2255515;61;20358;-61
2023/04/16 06:22:37;0.00;0.00;0.62;0.00;0.00;0.62;3.07;2.77;;;24.20;23.40;;;;;;2256488;61;20369;-62
2023/04/16 06:25:22;0.00;0.00;0.62;0.00;0.00;0.62;2.73;2.30;;;24.30;23.50;;;;;;2253179;61;20421;-62
2023/04/16 06:31:12;0.00;0.00;0.62;0.00;0.00;0.62;2.70;2.40;;;24.30;23.50;;;;;;2277728;60;20982;-63
2023/04/16 06:33:56;0.00;0.00;0.62;0.00;0.00;0.62;3.07;2.60;;;24.20;23.40;;;;;;2275844;60;20357;-59
2023/04/16 06:36:42;0.00;0.00;0.62;0.00;0.00;0.62;2.63;2.43;;;24.20;23.40;;;;;;2276457;60;20866;-63
2023/04/16 06:39:27;0.00;0.00;0.62;0.00;0.00;0.62;2.60;2.20;;;24.20;23.40;;;;;;2276380;60;20859;-63
2023/04/16 06:42:11;0.00;0.00;0.62;0.00;0.00;0.62;3.30;2.57;;;24.20;23.40;;;;;;2276178;60;20765;-62
2023/04/16 06:44:57;0.00;0.00;0.62;0.00;0.00;0.62;3.00;2.40;;;24.20;23.40;;;;;;2276272;60;20439;-61
2023/04/16 06:47:41;0.00;0.00;0.62;0.00;0.00;0.62;2.40;2.03;;;24.20;23.40;;;;;;2276677;60;20435;-62
2023/04/16 06:50:27;0.00;0.00;0.62;0.00;0.00;0.62;3.10;2.60;;;24.20;23.40;;;;;;2276120;60;20454;-63
2023/04/16 06:53:14;0.00;0.00;0.62;0.00;0.00;0.62;2.60;2.27;;;24.20;23.40;;;;;;2276531;60;20362;-62
2023/04/16 06:55:58;0.00;0.00;0.62;0.00;0.00;0.62;2.50;2.23;;;24.20;23.40;;;;;;2276206;60;20397;-63
2023/04/16 06:58:43;0.00;0.00;0.62;0.00;0.00;0.62;2.93;2.43;;;24.20;23.40;;;;;;2276523;60;20404;-62
2023/04/16 07:01:29;0.00;0.00;0.62;0.00;0.00;0.62;2.87;2.57;;;24.20;23.40;;;;;;2276376;60;20348;-60
2023/04/16 07:04:15;0.00;0.00;0.62;0.00;0.00;0.62;2.50;2.20;;;24.20;23.40;;;;;;2276185;60;20905;-58
2023/04/16 07:06:59;0.00;0.00;0.62;0.00;0.00;0.62;2.57;2.37;;;24.20;23.40;;;;;;2276196;60;20457;-61
2023/04/16 07:09:46;0.00;0.00;0.62;0.00;0.00;0.62;2.40;2.10;;;24.20;23.40;;;;;;2276064;60;20380;-63
2023/04/16 07:12:31;0.00;0.00;0.62;0.00;0.00;0.62;3.00;2.67;;;24.20;23.40;;;;;;2276692;60;20353;-62
2023/04/16 07:15:16;0.00;0.00;0.62;0.00;0.00;0.62;2.77;2.40;;;24.20;23.40;;;;;;2276505;60;20388;-62
2023/04/16 07:18:01;0.00;0.00;0.62;0.00;0.00;0.62;2.97;2.67;;;24.20;23.40;;;;;;2276962;60;20915;-62
2023/04/16 07:20:46;0.00;0.00;0.62;0.00;0.00;0.62;3.10;2.80;;;24.20;23.40;;;;;;2275887;60;20361;-63
2023/04/16 07:23:31;0.00;0.00;0.62;0.00;0.00;0.62;3.03;2.70;;;24.20;23.40;;;;;;2277226;60;20403;-63
2023/04/16 07:26:17;0.00;0.00;0.62;0.00;0.00;0.62;4.23;3.30;;;24.20;23.40;;;;;;2277036;60;20360;-64
2023/04/16 07:29:02;0.00;0.00;0.62;0.00;0.00;0.62;2.53;2.33;;;24.20;23.40;;;;;;2276257;60;21097;-59
2023/04/16 07:31:46;0.00;0.00;0.62;0.00;0.00;0.62;3.40;3.10;;;24.20;23.40;;;;;;2277480;60;20365;-63
2023/04/16 07:34:31;0.00;0.00;0.62;0.00;0.00;0.62;3.87;3.37;;;24.20;23.40;;;;;;2276738;60;20357;-60
2023/04/16 07:37:16;0.00;0.00;0.62;0.00;0.00;0.62;3.97;2.37;;;24.20;23.40;;;;;;2277119;60;20824;-62
2023/04/16 07:40:00;0.00;0.00;0.62;0.00;0.00;0.62;3.30;3.00;;;24.20;23.40;;;;;;2276113;60;20537;-64
2023/04/16 07:42:46;0.00;0.00;0.62;0.00;0.00;0.62;3.77;3.40;;;24.20;23.40;;;;;;2277068;60;20384;-64
2023/04/16 07:45:31;0.00;0.00;0.62;0.00;0.00;0.62;4.10;3.67;;;24.20;23.40;;;;;;2277203;60;20381;-61
2023/04/16 07:48:16;0.00;0.00;0.62;0.00;0.00;0.62;3.40;3.10;;;24.20;23.40;;;;;;2276677;60;20835;-62
2023/04/16 07:51:00;0.00;0.00;0.62;0.00;0.00;0.62;3.20;2.80;;;24.20;23.40;;;;;;2276685;60;20385;-61
2023/04/16 07:53:45;0.00;0.00;0.62;0.00;0.00;0.62;3.20;2.90;;;24.20;23.40;;;;;;2277015;60;20408;-61
2023/04/16 07:56:30;0.00;0.00;0.62;0.00;0.00;0.62;3.50;3.20;;;24.20;23.40;;;;;;2276463;60;20353;-63
2023/04/16 07:59:16;0.00;0.00;0.62;0.00;0.00;0.62;3.50;3.20;;;24.20;23.40;;;;;;2276615;60;20385;-64
2023/04/16 08:02:00;0.00;0.00;0.62;0.00;0.00;0.62;3.80;3.30;;;24.20;23.40;;;;;;2276956;60;20398;-59
2023/04/16 08:04:45;0.00;0.00;0.62;0.00;0.00;0.62;3.80;3.40;;;24.20;23.40;;;;;;2276899;60;20376;-61
2023/04/16 08:07:30;0.00;0.00;0.62;0.00;0.00;0.62;3.17;2.87;;;24.20;23.40;;;;;;2276875;60;20358;-63
2023/04/16 08:10:15;0.00;0.00;0.62;0.00;0.00;0.62;4.13;3.73;;;24.20;23.50;;;;;;2276040;60;20438;-60
2023/04/16 08:13:00;0.00;0.00;0.62;0.00;0.00;0.62;3.50;3.20;;;24.20;23.50;;;;;;2276876;60;20353;-63
2023/04/16 08:15:46;0.00;0.00;0.62;0.00;0.00;0.62;3.70;3.40;;;24.20;23.40;;;;;;2276395;60;20410;-61
2023/04/16 08:18:31;0.00;0.00;0.62;0.00;0.00;0.62;4.20;3.50;;;24.20;23.50;;;;;;2276701;60;20832;-63
2023/04/16 08:21:16;0.00;0.00;0.62;0.00;0.00;0.62;4.57;3.30;;;24.20;23.40;;;;;;2276434;60;20361;-60
2023/04/16 08:24:00;0.00;0.00;0.62;0.00;0.00;0.62;4.40;4.00;;;24.20;23.40;;;;;;2276494;60;20388;-62
2023/04/16 08:26:45;0.00;0.00;0.62;0.00;0.00;0.62;3.90;3.60;;;24.20;23.40;;;;;;2276989;60;20817;-63
2023/04/16 08:29:37;0.00;0.00;0.62;0.00;0.00;0.62;3.50;3.20;;;24.20;23.40;;;;;;2445988;39;20517;-62
2023/04/16 08:32:24;0.00;0.00;0.62;0.00;0.00;0.62;3.60;3.30;;;24.20;23.50;;;;;;2277900;60;20381;-59
2023/04/16 08:35:09;0.00;0.00;0.62;0.00;0.00;0.62;3.60;2.90;;;24.20;23.50;;;;;;2276580;60;20361;-63
2023/04/16 08:37:58;0.00;0.00;0.62;0.00;0.00;0.62;4.40;3.20;;;24.20;23.50;;;;;;2285748;39;20958;-63
2023/04/16 08:40:44;0.00;0.00;0.62;0.00;0.00;0.62;3.77;3.40;;;24.20;23.40;;;;;;2270141;61;20390;-61
2023/04/16 08:43:32;0.00;0.00;0.62;0.00;0.00;0.62;4.10;3.60;;;24.20;23.50;;;;;;2272672;61;20397;-61
2023/04/16 08:46:21;0.00;0.00;0.62;0.00;0.00;0.62;4.00;3.60;;;24.20;23.50;;;;;;2271984;61;20436;-63
2023/04/16 08:49:07;0.00;0.00;0.62;0.00;0.00;0.62;3.83;3.53;;;24.20;23.50;;;;;;2267897;61;20935;-63
2023/04/16 08:51:55;0.00;0.00;0.62;0.00;0.00;0.62;3.47;3.17;;;24.20;23.50;;;;;;2268509;61;20385;-63
2023/04/16 08:54:47;0.00;0.00;0.62;0.00;0.00;0.62;3.37;3.07;;;24.20;23.50;;;;;;2268000;61;20771;-63
2023/04/16 08:57:41;0.00;0.00;0.62;0.00;0.00;0.62;3.47;3.17;;;24.20;23.50;;;;;;2268511;61;20497;-63
2023/04/16 09:00:27;0.00;0.00;0.62;0.00;0.00;0.62;3.63;3.33;;;24.20;23.50;;;;;;2268253;61;20815;-64
2023/04/16 09:03:12;0.00;0.00;0.62;0.00;0.00;0.62;4.20;3.43;;;24.20;23.50;;;;;;2268045;61;20886;-65
2023/04/16 09:05:58;0.00;0.00;0.62;0.00;0.00;0.62;3.50;2.97;;;24.20;23.50;;;;;;2265323;61;20366;-66
2023/04/16 09:08:45;0.00;0.00;0.62;0.00;0.00;0.62;3.20;2.90;;;24.20;23.50;;;;;;2265263;61;20830;-63
2023/04/16 09:11:30;0.00;0.00;0.62;0.00;0.00;0.62;3.90;3.60;;;24.30;23.50;;;;;;2268409;61;20383;-64
2023/04/16 09:14:15;0.00;0.00;0.62;0.00;0.00;0.62;3.77;3.40;;;24.20;23.50;;;;;;2268614;61;20354;-61
2023/04/16 09:17:01;0.00;0.00;0.62;0.00;0.00;0.62;3.40;2.70;;;24.20;23.50;;;;;;2268392;61;20394;-62
2023/04/16 09:19:46;0.00;0.00;0.62;0.00;0.00;0.62;3.87;3.50;;;24.20;23.50;;;;;;2268054;61;20757;-63
2023/04/16 09:22:32;0.00;0.00;0.62;0.00;0.00;0.62;3.80;3.50;;;24.20;23.50;;;;;;2268879;61;20355;-61
2023/04/16 09:25:20;0.00;0.00;0.62;0.00;0.00;0.62;3.70;3.30;;;24.30;23.50;;;;;;2268148;61;20896;-62
2023/04/16 09:28:05;0.00;0.00;0.62;0.00;0.00;0.62;3.40;3.10;;;24.30;23.50;;;;;;2268637;61;20387;-59
2023/04/16 09:30:49;0.00;0.00;0.62;0.00;0.00;0.62;3.20;2.90;;;24.20;23.50;;;;;;2268106;61;20927;-63
2023/04/16 09:33:34;0.00;0.00;0.62;0.00;0.00;0.62;4.03;3.63;;;24.30;23.50;;;;;;2268187;61;20915;-62
2023/04/16 09:36:22;0.00;0.00;0.62;0.00;0.00;0.62;3.50;3.20;;;24.30;23.50;;;;;;2268479;61;20358;-61
2023/04/16 09:39:18;0.00;0.00;0.62;0.00;0.00;0.62;3.70;3.40;;;24.20;23.50;;;;;;2267443;61;20712;-64
2023/04/16 09:42:05;0.00;0.00;0.62;0.00;0.00;0.62;3.80;3.40;;;24.30;23.50;;;;;;2268670;61;20420;-62
2023/04/16 09:44:51;0.00;0.00;0.62;0.00;0.00;0.62;3.53;2.90;;;24.20;23.40;;;;;;2264837;61;20441;-63
2023/04/16 09:47:42;0.00;0.00;0.62;0.00;0.00;0.62;4.80;3.53;;;24.30;23.50;;;;;;2268104;61;20359;-60
2023/04/16 09:50:28;0.00;0.00;0.62;0.00;0.00;0.62;3.27;2.97;;;24.30;23.50;;;;;;2268021;61;20383;-64
2023/04/16 09:53:12;0.00;0.00;0.62;0.00;0.00;0.62;4.10;3.17;;;24.30;23.50;;;;;;2268285;61;20375;-63
2023/04/16 09:56:00;0.00;0.00;0.62;0.00;0.00;0.62;4.00;3.50;;;24.30;23.50;;;;;;2268452;61;20941;-62
2023/04/16 09:58:45;0.00;0.00;0.62;0.00;0.00;0.62;3.40;3.00;;;24.20;23.50;;;;;;2268637;61;20429;-64
2023/04/16 10:01:30;0.00;0.00;0.62;0.00;0.00;0.62;3.97;3.53;;;24.30;23.50;;;;;;2264840;61;20355;-62
2023/04/16 10:04:15;0.00;0.00;0.62;0.00;0.00;0.62;3.47;3.13;;;24.20;24.00;;;;;;2265350;61;20359;-61
2023/04/16 10:07:03;0.00;0.00;0.62;0.00;0.00;0.62;3.77;3.43;;;24.30;23.50;;;;;;2268993;61;20417;-62
2023/04/16 10:09:51;0.00;0.00;0.62;0.00;0.00;0.62;3.73;3.40;;;24.20;23.50;;;;;;2267684;61;20375;-62
2023/04/16 10:12:37;0.00;0.00;0.62;0.00;0.00;0.62;3.90;3.53;;;24.20;23.40;;;;;;2268408;61;20363;-62
2023/04/16 10:15:22;0.00;0.00;0.62;0.00;0.00;0.62;3.77;3.43;;;24.20;23.40;;;;;;2268085;61;20501;-63
2023/04/16 10:18:07;0.00;0.00;0.62;0.00;0.00;0.62;4.10;3.70;;;24.30;23.50;;;;;;2268486;61;20387;-61
2023/04/16 10:20:52;0.00;0.00;0.62;0.00;0.00;0.62;3.63;3.33;;;24.30;23.50;;;;;;2268243;61;20351;-64
2023/04/16 10:23:38;0.00;0.00;0.62;0.00;0.00;0.62;3.97;3.40;;;24.30;23.50;;;;;;2268160;61;20492;-62
2023/04/16 10:26:23;0.00;0.00;0.62;0.00;0.00;0.62;3.60;3.30;;;24.30;23.50;;;;;;2268366;61;20354;-60
2023/04/16 10:29:10;0.00;0.00;0.62;0.00;0.00;0.62;3.87;3.47;;;24.20;23.50;;;;;;2268132;61;20379;-61
2023/04/16 10:31:56;0.00;0.00;0.62;0.00;0.00;0.62;3.73;3.33;;;24.30;23.50;;;;;;2268119;61;20363;-64
2023/04/16 10:34:41;0.00;0.00;0.62;0.00;0.00;0.62;3.93;3.63;;;24.30;23.50;;;;;;2268196;61;20832;-63
2023/04/16 10:37:30;0.00;0.00;0.62;0.00;0.00;0.62;3.73;3.33;;;24.30;23.50;;;;;;2268165;61;20433;-63
2023/04/16 10:40:26;0.00;0.00;0.62;0.00;0.00;0.62;4.50;3.47;;;24.30;23.50;;;;;;2268023;61;20964;-64
2023/04/16 10:43:16;0.00;0.00;0.62;0.00;0.00;0.62;4.10;3.70;;;24.30;23.50;;;;;;2265119;61;20360;-62
2023/04/16 10:46:22;0.00;0.00;0.62;0.00;0.00;0.62;3.53;3.23;;;24.30;23.50;;;;;;2268019;61;20355;-64
2023/04/16 10:49:15;0.00;0.00;0.62;0.00;0.00;0.62;3.90;3.27;;;24.30;23.50;;;;;;2267775;61;20391;-64
2023/04/16 10:52:08;0.00;0.00;0.62;0.00;0.00;0.62;4.20;3.80;;;24.30;23.50;;;;;;2268212;61;20374;-66
2023/04/16 10:54:54;0.00;0.00;0.62;0.00;0.00;0.62;3.80;3.37;;;24.30;23.50;;;;;;2268281;61;20405;-63
2023/04/16 10:57:39;0.00;0.00;0.62;0.00;0.00;0.62;3.63;3.10;;;24.30;23.50;;;;;;2268202;61;20413;-63